Latest Weather Observations for Gelantipy

IDV60801

Issued at 12:02 pm EDT Tuesday 27 January 2015 (issued every 30 minutes, with the page automatically refreshed every 10 minutes)

About weather observations | Map of weather stations | Latest weather observations for VIC | Other Formats
Station Details ID: 084142 Name: GELANTIPY Lat: -37.22 Lon: 148.26 Height: 755.0 m
Data from the previous 72 hours. | See also: Recent months at Gelantipy
Date/Time
EDT
Temp
°C
App
Temp
°C
Dew
Point
Rel
Hum
%
Delta-T
°C
Wind Press
QNH
hPa
Press
MSL
hPa
Rain
since 9 am
mm
Dir
 
Spd
km/h
Gust
km/h
Spd
kts
Gust
kts
27/12:00pm 13.6 11.6 10.0 79 1.9 ENE 11 17 6 9 1016.6 1013.7 0.0
27/11:30am 13.6 11.1 9.8 78 2.0 ENE 13 19 7 10 1016.6 1013.7 0.0
27/11:00am 12.7 10.6 9.9 83 1.5 ENE 11 13 6 7 1016.6 1013.7 0.0
27/10:30am 12.4 10.3 9.8 84 1.4 NE 11 15 6 8 1016.6 1013.7 0.0
27/10:00am 11.8 9.1 9.0 83 1.5 NE 13 19 7 10 1016.7 1013.8 0.0
27/09:30am 11.6 9.0 9.2 85 1.3 NE 13 19 7 10 1016.5 1013.6 0.0
27/09:00am 11.8 8.8 9.4 85 1.3 NNE 15 20 8 11 1016.4 1013.5 0.0
27/08:30am 10.9 8.2 9.0 88 1.0 NE 13 19 7 10 1016.3 1013.4 0.0
27/08:00am 10.1 7.3 8.5 90 0.8 NNE 13 19 7 10 1016.3 1013.4 0.0
27/07:30am 9.9 7.8 8.3 90 0.8 NE 9 13 5 7 1016.1 1013.1 0.0
27/07:00am 9.8 7.7 8.4 91 0.7 NE 9 13 5 7 1016.0 1013.0 0.0
27/06:30am 9.5 7.4 8.1 91 0.7 NE 9 17 5 9 1015.9 1012.9 0.0
27/06:00am 9.4 6.9 8.0 91 0.7 NE 11 13 6 7 1015.6 1012.6 0.0
27/05:30am 9.4 6.9 8.0 91 0.7 NNE 11 17 6 9 1015.7 1012.7 0.0
27/05:00am 9.4 6.9 8.0 91 0.7 NE 11 15 6 8 1015.4 1012.5 0.0
27/04:30am 9.3 7.5 7.9 91 0.7 NE 7 9 4 5 1015.6 1012.6 0.0
27/04:00am 9.4 7.6 8.0 91 0.7 NNE 7 9 4 5 1015.8 1012.8 0.0
27/03:30am 9.6 7.8 8.0 90 0.8 NNE 7 9 4 5 1016.1 1013.1 0.0
27/03:00am 9.6 8.7 7.9 89 0.9 NNE 2 6 1 3 1016.3 1013.4 0.0
27/02:30am 9.6 8.3 7.7 88 0.9 ENE 4 6 2 3 1016.5 1013.6 0.0
27/02:00am 9.5 7.8 7.4 87 1.0 NE 6 7 3 4 1016.7 1013.8 0.0
27/01:30am 9.4 8.4 7.3 87 1.0 NNE 2 6 1 3 1017.1 1014.1 0.0
27/01:00am 9.3 8.3 7.3 87 1.0 NE 2 6 1 3 1017.2 1014.2 0.0
27/12:30am 9.1 7.3 7.1 87 1.0 N 6 7 3 4 1017.3 1014.3 0.0
27/12:00am 9.0 7.2 7.1 88 0.9 E 6 7 3 4 1017.6 1014.7 0.0
 
Date/Time
EDT
Temp
°C
App
Temp
°C
Dew
Point
Rel
Hum
%
Delta-T
°C
Wind Press
QNH
hPa
Press
MSL
hPa
Rain
since 9 am
mm
Dir
 
Spd
km/h
Gust
km/h
Spd
kts
Gust
kts
26/11:30pm 9.0 7.3 7.5 90 0.7 NNE 6 9 3 5 1017.7 1014.8 0.0
26/11:00pm 9.2 7.2 7.2 87 1.0 ENE 7 11 4 6 1017.8 1014.9 0.0
26/10:30pm 9.4 7.6 7.2 86 1.1 ENE 6 9 3 5 1017.9 1015.0 0.0
26/10:00pm 9.7 7.9 7.3 85 1.2 E 6 11 3 6 1018.0 1015.1 0.0
26/09:30pm 9.8 9.2 7.2 84 1.3 CALM 0 6 0 3 1017.8 1014.9 0.0
26/09:00pm 9.9 7.2 7.5 85 1.2 SE 11 17 6 9 1017.5 1014.6 0.0
26/08:30pm 10.2 7.9 7.3 82 1.4 SE 9 13 5 7 1017.4 1014.5 0.0
26/08:00pm 10.5 7.7 7.0 79 1.7 SE 11 19 6 10 1017.1 1014.1 0.0
26/07:30pm 10.8 8.4 6.9 77 1.9 SSE 9 17 5 9 1016.7 1013.8 0.0
26/07:00pm 11.1 8.7 7.0 76 2.0 SSE 9 15 5 8 1016.2 1013.3 0.0
26/06:30pm 11.4 8.2 6.9 74 2.2 SSE 13 22 7 12 1015.9 1012.9 0.0
26/06:00pm 11.8 8.6 6.7 71 2.5 ESE 13 22 7 12 1015.6 1012.6 0.0
26/05:30pm 12.1 8.1 6.8 70 2.6 SE 17 22 9 12 1015.4 1012.5 0.0
26/05:00pm 13.0 10.0 7.5 69 2.8 SE 13 20 7 11 1015.4 1012.5 0.0
26/04:30pm 13.4 10.2 6.7 64 3.4 SSE 13 19 7 10 1015.4 1012.5 0.0
26/04:00pm 13.3 9.5 5.9 61 3.6 S 15 20 8 11 1015.7 1012.7 0.0
26/03:30pm 14.3 11.0 6.4 59 4.0 SSW 13 22 7 12 1015.6 1012.6 0.0
26/03:00pm 14.2 11.8 6.8 61 3.7 S 9 17 5 9 1015.7 1012.7 0.0
26/02:30pm 13.4 10.4 6.0 61 3.7 SE 11 15 6 8 1015.8 1012.8 0.0
26/02:00pm 13.3 10.3 5.9 61 3.6 SSE 11 20 6 11 1015.9 1012.9 0.0
26/01:30pm 13.1 10.5 6.2 63 3.4 SSE 9 15 5 8 1016.1 1013.1 0.0
26/01:00pm 13.4 11.0 7.2 66 3.1 SSE 9 13 5 7 1016.1 1013.1 0.0
26/12:30pm 12.7 10.4 5.6 62 3.5 SW 7 13 4 7 1016.2 1013.3 0.0
26/12:00pm 12.3 9.4 4.8 60 3.6 S 9 15 5 8 1016.3 1013.4 0.0
26/11:30am 11.8 9.3 5.0 63 3.3 S 7 15 4 8 1016.3 1013.4 0.0
26/11:00am 12.1 8.9 5.3 63 3.3 SSE 11 17 6 9 1016.3 1013.4 0.0
26/10:30am 11.8 8.6 5.2 64 3.2 S 11 17 6 9 1016.2 1013.3 0.0
26/10:00am 10.9 8.0 4.6 65 3.0 SSE 9 13 5 7 1016.3 1013.4 0.0
26/09:30am 10.7 8.4 5.7 71 2.4 SSW 7 13 4 7 1016.2 1013.3 0.0
26/09:00am 9.8 7.0 5.2 73 2.2 SSE 9 13 5 7 1016.2 1013.3 0.8
26/08:30am 8.8 5.9 4.4 74 2.0 SSE 9 11 5 6 1016.0 1013.0 0.8
26/08:00am 8.3 5.9 4.3 76 1.8 S 6 9 3 5 1015.6 1012.6 0.8
26/07:30am 8.1 7.1 5.7 85 1.1 CALM 0 0 0 0 1015.3 1012.4 0.8
26/07:00am 7.8 7.0 6.3 90 0.7 CALM 0 0 0 0 1015.0 1012.1 0.8
26/06:30am 7.6 6.7 5.9 89 0.8 CALM 0 0 0 0 1014.8 1011.8 0.8
26/06:00am 7.7 6.5 6.5 92 0.6 W 2 7 1 4 1014.4 1011.4 0.8
26/05:30am 7.7 6.8 6.0 89 0.8 CALM 0 0 0 0 1014.0 1011.1 0.8
26/05:00am 7.8 6.2 6.3 90 0.7 WSW 4 6 2 3 1013.7 1010.7 0.8
26/04:30am 7.9 7.1 6.5 91 0.7 CALM 0 0 0 0 1013.4 1010.4 0.8
26/04:00am 7.9 6.5 5.7 86 1.0 SSW 2 7 1 4 1013.4 1010.4 0.8
26/03:30am 8.0 5.7 5.6 85 1.1 SSW 7 9 4 5 1013.2 1010.2 0.8
26/03:00am 8.2 6.2 6.3 88 0.9 SSW 6 7 3 4 1013.2 1010.2 0.8
26/02:30am 8.3 7.2 6.8 90 0.7 S 2 6 1 3 1013.1 1010.1 0.8
26/02:00am 8.2 6.6 6.5 89 0.8 SSW 4 6 2 3 1013.1 1010.1 0.8
26/01:30am 8.3 6.4 6.8 90 0.7 SSW 6 7 3 4 1013.2 1010.2 0.8
26/01:00am 8.3 6.8 6.9 91 0.7 SSW 4 7 2 4 1013.1 1010.1 0.8
26/12:30am 8.4 6.6 7.3 93 0.5 SW 6 9 3 5 1013.1 1010.1 0.8
26/12:00am 8.5 6.2 7.3 92 0.6 SSW 9 13 5 7 1013.1 1010.1 0.8
 
Date/Time
EDT
Temp
°C
App
Temp
°C
Dew
Point
Rel
Hum
%
Delta-T
°C
Wind Press
QNH
hPa
Press
MSL
hPa
Rain
since 9 am
mm
Dir
 
Spd
km/h
Gust
km/h
Spd
kts
Gust
kts
25/11:30pm 9.0 7.3 8.5 97 0.3 S 7 15 4 8 1013.1 1010.1 0.6
25/11:00pm 9.4 7.4 8.8 96 0.3 S 9 13 5 7 1013.0 1010.0 0.4
25/10:30pm 9.8 8.3 9.2 96 0.3 SSW 7 11 4 6 1012.8 1009.8 0.2
25/10:00pm 9.9 8.4 9.3 96 0.3 S 7 9 4 5 1012.4 1009.4 0.2
25/09:30pm 10.1 8.2 9.2 94 0.5 SSE 9 15 5 8 1012.2 1009.2 0.2
25/09:00pm 11.0 9.4 8.9 87 1.1 S 7 13 4 7 1011.6 1008.6 0.0
25/08:30pm 11.0 9.0 8.6 85 1.2 S 9 17 5 9 1011.0 1008.0 0.0
25/08:00pm 11.4 8.7 9.1 86 1.2 S 13 20 7 11 1010.5 1007.5 0.0
25/07:30pm 11.7 9.4 8.9 83 1.5 S 11 17 6 9 1010.1 1007.0 0.0
25/07:00pm 12.3 10.0 9.1 81 1.7 S 11 17 6 9 1009.6 1006.6 0.0
25/06:30pm 12.9 10.7 9.4 79 1.9 S 11 15 6 8 1009.0 1005.9 0.0
25/06:00pm 13.0 11.2 9.4 79 1.9 S 9 19 5 10 1008.7 1005.6 0.0
25/05:30pm 13.0 10.9 9.6 80 1.8 S 11 20 6 11 1008.3 1005.3 0.0
25/05:00pm 12.9 10.0 9.7 81 1.7 S 15 20 8 11 1008.1 1005.1 0.0
25/04:30pm 13.0 10.7 10.4 84 1.4 S 13 19 7 10 1007.8 1004.7 0.0
25/04:00pm 13.2 11.0 10.7 85 1.4 S 13 19 7 10 1007.5 1004.4 0.0
25/03:30pm 13.2 10.9 10.4 83 1.5 S 13 24 7 13 1007.3 1004.2 0.0
25/03:00pm 12.5 10.0 10.9 90 0.9 S 15 20 8 11 1006.9 1003.9 0.0
25/02:30pm 13.8 11.7 11.0 83 1.5 S 13 20 7 11 1006.6 1003.5 0.0
25/02:00pm 14.1 11.6 11.1 82 1.7 SSW 15 24 8 13 1006.4 1003.3 0.0
25/01:30pm 13.8 11.3 11.1 84 1.5 S 15 26 8 14 1006.3 1003.2 0.0
25/01:00pm 13.7 11.7 11.6 87 1.2 S 13 24 7 13 1006.3 1003.2 0.0
25/12:30pm 15.8 13.4 12.7 82 1.8 SSW 17 28 9 15 1005.9 1002.8 0.0
25/12:00pm 16.8 14.9 12.9 78 2.3 S 15 28 8 15 1005.3 1002.2 0.0
25/11:30am 17.8 15.7 13.7 77 2.4 S 17 26 9 14 1005.1 1002.0 0.0
25/11:00am 18.4 16.9 14.3 77 2.5 SSE 15 24 8 13 1005.1 1002.0 0.0
25/10:30am 19.1 18.9 14.8 76 2.6 SSE 9 15 5 8 1005.0 1001.9 0.0
25/10:00am 18.9 17.9 14.6 76 2.6 S 13 20 7 11 1005.0 1001.9 0.0
25/09:30am 19.1 18.8 15.4 79 2.3 S 11 19 6 10 1005.0 1001.9 0.0
25/09:00am 17.6 16.8 15.2 86 1.5 SSE 13 19 7 10 1005.0 1001.9 0.0
25/08:30am 19.7 19.7 15.1 75 2.8 SSW 9 20 5 11 1004.8 1001.7 0.0
25/08:00am 20.1 16.5 9.9 52 5.7 W 19 26 10 14 1004.3 1001.1 0.0
25/07:30am 19.4 15.2 9.6 53 5.4 WNW 22 35 12 19 1003.8 1000.7 0.0
25/07:00am 18.5 15.0 10.3 59 4.6 NW 19 28 10 15 1003.3 1000.2 0.0
25/06:30am 18.4 16.7 11.2 63 4.1 NNW 11 19 6 10 1002.6 999.5 0.0
25/06:00am 18.0 17.2 12.9 72 3.0 NW 9 15 5 8 1003.1 999.9 0.0
25/05:30am 18.9 18.2 13.3 70 3.3 NNW 9 13 5 7 1002.9 999.7 0.0
25/05:00am 19.8 17.7 13.7 68 3.6 NNW 17 33 9 18 1002.4 999.3 0.0
25/04:30am 18.7 18.2 13.8 73 2.9 NW 9 26 5 14 1002.6 999.5 0.0
25/04:00am 17.0 17.2 14.1 83 1.7 NE 6 11 3 6 1002.7 999.6 0.0
25/03:30am 16.6 15.7 14.8 89 1.1 N 13 17 7 9 1002.9 999.7 0.0
25/03:00am 16.8 15.5 14.8 88 1.2 NNE 15 19 8 10 1003.3 1000.2 0.0
25/02:30am 18.2 16.5 14.7 80 2.1 N 17 22 9 12 1003.5 1000.4 0.0
25/02:00am 18.5 16.8 14.6 78 2.3 NNE 17 20 9 11 1004.0 1000.9 0.0
25/01:30am 19.3 17.2 14.8 75 2.7 N 19 26 10 14 1004.1 1001.0 0.0
25/01:00am 18.5 16.2 14.6 78 2.3 N 20 24 11 13 1004.4 1001.2 0.0
25/12:30am 17.3 15.3 14.9 86 1.4 N 19 24 10 13 1004.8 1001.7 0.0
25/12:00am 17.8 15.7 15.2 85 1.6 NNE 20 26 11 14 1005.1 1002.0 0.0
 
Date/Time
EDT
Temp
°C
App
Temp
°C
Dew
Point
Rel
Hum
%
Delta-T
°C
Wind Press
QNH
hPa
Press
MSL
hPa
Rain
since 9 am
mm
Dir
 
Spd
km/h
Gust
km/h
Spd
kts
Gust
kts
24/11:30pm 18.1 16.6 15.4 84 1.6 NE 17 22 9 12 1005.2 1002.1 0.0
24/11:00pm 17.8 16.3 15.4 86 1.5 N 17 20 9 11 1005.7 1002.6 0.0
24/10:30pm 17.7 14.6 15.5 87 1.3 N 26 32 14 17 1005.9 1002.8 0.0
24/10:00pm 18.1 16.3 15.9 87 1.4 N 20 32 11 17 1006.2 1003.1 0.0
24/09:30pm 18.3 16.8 16.3 88 1.2 NNE 19 24 10 13 1006.0 1002.9 0.0
24/09:00pm 18.7 16.3 16.5 87 1.4 N 24 30 13 16 1005.8 1002.7 0.0
24/08:30pm 18.8 17.3 16.8 88 1.2 NNE 20 26 11 14 1005.7 1002.6 0.0
24/08:00pm 19.4 17.1 16.6 84 1.7 NNE 24 33 13 18 1005.3 1002.2 0.0
24/07:30pm 19.8 19.3 17.0 84 1.8 NNE 15 19 8 10 1005.3 1002.2 0.0
24/07:00pm 20.7 19.4 16.9 79 2.4 NE 19 24 10 13 1005.2 1002.1 0.0
24/06:30pm 20.7 20.5 17.7 83 1.9 NNE 15 20 8 11 1005.0 1001.9 0.0
24/06:00pm 20.6 19.5 17.8 84 1.8 N 20 24 11 13 1004.8 1001.7 0.0
24/05:30pm 20.0 20.2 17.6 86 1.5 NNE 13 15 7 8 1005.7 1002.6 0.0
24/05:00pm 20.5 21.9 17.7 84 1.8 NNE 7 11 4 6 1006.2 1003.1 0.0
24/04:30pm 21.1 23.3 17.5 80 2.3 S 2 9 1 5 1006.2 1003.1 0.0
24/04:00pm 21.2 20.8 17.2 78 2.5 NNE 15 24 8 13 1005.9 1002.8 0.0
24/03:30pm 25.5 23.5 15.5 54 6.3 WNW 20 30 11 16 1005.7 1002.6 0.0
24/03:00pm 27.7 26.5 16.0 49 7.5 WNW 17 22 9 12 1005.3 1002.2 0.0
24/02:30pm 27.9 26.1 15.5 46 7.8 WNW 19 32 10 17 1005.8 1002.7 0.0
24/02:00pm 28.7 27.6 16.3 47 8.0 NW 17 28 9 15 1005.8 1002.7 0.0
24/01:30pm 28.2 28.0 16.8 50 7.3 NW 13 20 7 11 1006.3 1003.2 0.0
24/01:00pm 29.0 27.1 15.2 43 8.7 NW 19 26 10 14 1006.6 1003.5 0.0
24/12:30pm 27.5 25.0 15.2 47 7.7 NW 22 33 12 18 1007.1 1004.0 0.0

Other Formats:

Comma delimited format used in spreadsheet applications
http://www.bom.gov.au/fwo/IDV60801/IDV60801.94913.axf

JavaScript Object Notation format (JSON) in row-major order
http://www.bom.gov.au/fwo/IDV60801/IDV60801.94913.json